Luke Air Force Base, AZ

8:36 PM MST on September 29, 2016 (GMT -0700)
Luke Air Force Base | | Change Station

Elev 1089 ft 33.53 °N, 112.38 °W | Updated 38 minutes ago

Clear
Clear
85 °F
Feels Like 84 °F
N
6
Wind Variable Wind from WNW

Today
High -- | Low -- °F
--% Chance of Precip.
Yesterday
High -- | Low -- °F
Precip. -- in
Pressure 29.96 in
Visibility 10.0 miles
Clouds Clear
Heat Index 84 °F
Dew Point 59 °F
Humidity 41%
Rainfall 0.02 in
Snow Depth Not available.
6:22 AM 6:15 PM
Waning Crescent, 1% visible
METAR KLUF 300258Z AUTO 29005KT 10SM CLR 29/15 A2999 RMK AO2 SLP144 T02930149 53005 $
Pressure 29.96 in
Visibility 10.0 miles
Clouds Clear
Heat Index 84 °F
Dew Point 59 °F
Humidity 41%
Rainfall 0.02 in
Snow Depth Not available.
6:22 AM 6:15 PM
Waning Crescent, 1% visible
METAR KLUF 300258Z AUTO 29005KT 10SM CLR 29/15 A2999 RMK AO2 SLP144 T02930149 53005 $

10-Day Weather Forecast

Almanac

Astronomy

Sep. 29, 2016 Rise Set
Actual Time
Civil Twilight
Nautical Twilight
Astronomical Twilight
Moon
Length of Visible Light
Length of Day
Tomorrow will be .
, % of the Moon is Illuminated

Today's Extremes

State Highs State Lows

Community

WunderPhotos

Upload Photos

1,942,652 photos uploaded!

WunderBlog® & News

Nearby

Air Quality

  Air Quality AQ Index Pollutant
Not available.

Snow Depth

Station Depth Elevation

Earthquake Activity

City Distance Mag. Time & Date
Minimum magnitude displayed is 2.5.

Coastal Water Temperatures

Place Temperature

Stations

Nearby Weather Stations

Station Location Temp. Windchill Dew Point Humidity Wind Precip. Elev Updated Type
                   

Watches & Warnings

There are currently no watches in effect.